Time;durP1;ratioP1;P1;durP2;ratioP2;P2;SDS_P1;SDS_P2;PMS_P1;PMS_P2;Temp;Humidity;BMP_temperature;BMP_pressure;BME280_temperature;BME280_humidity;BME280_pressure;Samples;Min_cycle;Max_cycle;Signal;HPM_P1;HPM_P2
2021/09/16 00:01:24;;;;;;;21.70;19.40;;;;;;;15.88;68.69;99188.06;472412;1194;143355;-61
2021/09/16 00:11:28;;;;;;;20.20;18.10;;;;;;;15.88;68.79;99185.83;471842;1194;144371;-60
2021/09/16 00:21:31;;;;;;;18.60;16.40;;;;;;;15.85;68.88;99182.67;472471;1194;141973;-60
2021/09/16 00:31:34;;;;;;;20.70;18.60;;;;;;;15.83;69.04;99175.05;472484;1194;143004;-60
2021/09/16 00:41:37;;;;;;;19.90;17.90;;;;;;;15.84;69.13;99170.11;471724;1194;143188;-61
2021/09/16 00:51:43;;;;;;;18.40;16.60;;;;;;;15.81;69.22;99159.39;472897;1190;141537;-59
2021/09/16 01:01:48;;;;;;;20.20;16.80;;;;;;;15.78;69.38;99153.86;464635;1194;141819;-57
2021/09/16 01:11:52;;;;;;;19.10;17.10;;;;;;;15.74;69.53;99151.74;472801;1194;142511;-59
2021/09/16 01:21:55;;;;;;;19.70;17.20;;;;;;;15.70;69.67;99143.51;472795;1194;143014;-59
2021/09/16 01:32:03;;;;;;;17.70;16.00;;;;;;;15.68;69.82;99133.61;472079;1194;143414;-58
2021/09/16 01:42:07;;;;;;;19.90;17.90;;;;;;;15.69;69.96;99126.96;472387;1194;143611;-59
2021/09/16 01:52:10;;;;;;;18.40;16.50;;;;;;;15.71;70.00;99123.14;472258;1194;142192;-60
2021/09/16 02:02:13;;;;;;;19.50;16.40;;;;;;;15.69;70.16;99115.16;472226;1191;144680;-59
2021/09/16 02:12:17;;;;;;;21.60;18.40;;;;;;;15.67;70.42;99114.46;467914;1194;142651;-59
2021/09/16 02:22:20;;;;;;;19.20;17.20;;;;;;;15.59;70.61;99107.26;472876;1193;141576;-59
2021/09/16 02:32:24;;;;;;;20.10;17.80;;;;;;;15.51;70.90;99107.95;470263;1194;142430;-59
2021/09/16 02:42:27;;;;;;;21.40;19.10;;;;;;;15.48;71.07;99093.66;472913;1194;142176;-59
2021/09/16 02:52:30;;;;;;;21.10;18.80;;;;;;;15.47;71.29;99078.56;472862;1194;141562;-59
2021/09/16 03:02:33;;;;;;;19.90;17.90;;;;;;;15.47;71.31;99074.65;472100;1193;142052;-59
2021/09/16 03:12:36;;;;;;;18.90;16.90;;;;;;;15.46;71.42;99067.73;472935;1194;142408;-59
2021/09/16 03:22:40;;;;;;;19.90;17.70;;;;;;;15.45;71.57;99066.70;472877;1193;141710;-59
2021/09/16 03:32:44;;;;;;;20.60;18.20;;;;;;;15.43;71.73;99071.51;471926;1194;142811;-59
2021/09/16 03:42:50;;;;;;;21.70;19.50;;;;;;;15.40;72.00;99071.42;472918;1194;144268;-59
2021/09/16 03:52:53;;;;;;;21.50;19.10;;;;;;;15.32;72.31;99060.14;468816;1194;145716;-57
2021/09/16 04:02:56;;;;;;;23.70;20.80;;;;;;;15.19;72.58;99055.32;472867;1194;143758;-58
2021/09/16 04:12:59;;;;;;;21.70;18.70;;;;;;;15.15;72.91;99044.63;472843;1194;143718;-59
2021/09/16 04:23:03;;;;;;;24.70;20.70;;;;;;;15.08;73.11;99049.45;471979;1194;141876;-59
2021/09/16 04:33:06;;;;;;;23.50;21.30;;;;;;;15.07;73.39;99041.09;472733;1194;143642;-59
2021/09/16 04:43:09;;;;;;;23.60;21.10;;;;;;;15.10;73.60;99040.69;463381;1194;142301;-58
2021/09/16 04:53:12;;;;;;;22.60;20.20;;;;;;;15.11;73.71;99036.14;468247;1194;142072;-59
2021/09/16 05:03:15;;;;;;;23.50;21.00;;;;;;;15.14;73.68;99043.30;472601;1194;141296;-59
2021/09/16 05:13:18;;;;;;;22.90;20.40;;;;;;;15.25;73.71;99042.51;470368;1194;143280;-58
2021/09/16 05:23:22;;;;;;;21.80;18.90;;;;;;;15.37;73.74;99035.57;471821;1194;142867;-58
2021/09/16 05:33:26;;;;;;;24.30;21.60;;;;;;;15.69;73.64;99033.50;473035;1191;142226;-58
2021/09/16 05:43:29;;;;;;;24.30;20.80;;;;;;;16.05;73.24;99032.98;472689;1194;144491;-57
2021/09/16 05:53:32;;;;;;;25.00;19.10;;;;;;;16.61;72.77;99035.67;455472;1195;142711;-56
2021/09/16 06:03:35;;;;;;;25.90;20.70;;;;;;;17.52;71.31;99039.45;455872;1194;143103;-60
2021/09/16 06:13:38;;;;;;;22.90;20.60;;;;;;;17.34;70.79;99034.57;460770;1195;142449;-56
2021/09/16 06:23:44;;;;;;;26.80;19.90;;;;;;;17.39;70.87;99041.13;472000;1195;141597;-64
2021/09/16 06:33:47;;;;;;;21.20;18.70;;;;;;;17.72;70.54;99036.15;472749;1193;141827;-61
2021/09/16 06:43:51;;;;;;;21.80;19.50;;;;;;;17.95;70.10;99033.52;470182;1194;164871;-57
2021/09/16 06:53:54;;;;;;;24.20;21.60;;;;;;;18.07;70.06;99041.61;461764;1195;153464;-55
2021/09/16 07:03:57;;;;;;;24.50;18.80;;;;;;;18.66;69.77;99051.40;470606;1194;142265;-56
2021/09/16 07:14:16;;;;;;;21.80;19.60;;;;;;;19.60;68.90;99051.84;471918;1194;194499;-59
2021/09/16 07:24:20;;;;;;;20.30;17.30;;;;;;;20.95;67.06;99056.79;472566;1195;142646;-60
2021/09/16 07:34:24;;;;;;;20.10;18.00;;;;;;;21.24;65.85;99057.91;472719;1194;141999;-60
2021/09/16 07:45:02;;;;;;;17.80;16.00;;;;;;;21.92;65.06;99060.28;455481;1208;600481;-58
2021/09/16 07:55:10;;;;;;;17.80;14.50;;;;;;;23.02;63.26;99060.11;458189;1196;144520;-60
2021/09/16 08:05:14;;;;;;;;;;;;;;;24.30;61.26;99061.15;474789;1195;140944;-63
2021/09/16 08:15:20;;;;;;;18.90;13.30;;;;;;;25.82;58.99;99065.20;474248;1196;127422;-58
2021/09/16 08:25:26;;;;;;;16.00;12.80;;;;;;;29.47;54.01;99061.13;459268;1195;140113;-59
2021/09/16 08:35:32;;;;;;;13.40;11.90;;;;;;;31.64;49.33;99060.64;458167;1196;141045;-62
2021/09/16 08:45:39;;;;;;;15.10;11.90;;;;;;;32.87;46.46;99059.91;475978;1195;140080;-58
2021/09/16 08:55:46;;;;;;;11.50;9.80;;;;;;;33.08;44.49;99059.81;476111;1195;140295;-58
2021/09/16 09:05:52;;;;;;;9.80;8.90;;;;;;;32.31;43.81;99057.77;475780;1195;140230;-64
2021/09/16 09:16:03;;;;;;;8.70;7.90;;;;;;;31.68;43.75;99053.31;458663;1195;20003163;-60
2021/09/16 09:26:24;;;;;;;9.50;6.40;;;;;;;30.86;43.99;99051.64;458911;1195;142229;-59
2021/09/16 09:36:39;;;;;;;13.00;5.50;;;;;;;30.55;44.21;99049.86;460987;1195;140270;-58
2021/09/16 09:46:50;;;;;;;14.70;6.90;;;;;;;29.40;44.90;99049.73;458088;1195;141039;-61
2021/09/16 09:57:16;;;;;;;5.40;4.90;;;;;;;28.17;46.34;99052.23;458980;1195;141068;-60
2021/09/16 10:07:34;;;;;;;13.50;9.70;;;;;;;27.01;47.98;99060.11;459065;1195;139676;-61
2021/09/16 10:17:41;;;;;;;10.20;8.70;;;;;;;26.61;49.27;99063.42;458805;1195;141539;-57
2021/09/16 10:27:49;;;;;;;13.90;8.00;;;;;;;26.84;50.04;99057.66;463090;1195;141185;-57
2021/09/16 10:37:55;;;;;;;9.70;8.20;;;;;;;27.50;49.43;99046.85;458949;1195;141161;-61
2021/09/16 10:48:29;;;;;;;8.90;7.90;;;;;;;27.74;48.86;99049.31;461629;1194;140077;-63
2021/09/16 10:58:35;;;;;;;8.40;6.70;;;;;;;27.53;49.42;99040.14;467961;1195;139193;-58
2021/09/16 11:09:04;;;;;;;6.10;5.60;;;;;;;27.43;49.18;99027.31;459915;1195;140369;-63
2021/09/16 11:19:10;;;;;;;10.40;6.40;;;;;;;26.88;49.18;99028.79;469648;1195;140892;-61
2021/09/16 11:29:16;;;;;;;8.00;6.20;;;;;;;25.37;54.01;99050.53;474898;1195;141185;-59
2021/09/16 11:39:22;;;;;;;7.90;6.20;;;;;;;23.82;57.18;99044.39;475825;1195;140391;-57
2021/09/16 11:49:28;;;;;;;7.90;5.90;;;;;;;23.26;59.37;99033.24;475891;1195;141213;-58
2021/09/16 11:59:34;;;;;;;6.20;5.60;;;;;;;23.36;60.96;99023.27;467116;1195;142174;-59
2021/09/16 12:09:40;;;;;;;9.80;7.00;;;;;;;23.35;61.30;99019.80;466654;1195;140387;-56
2021/09/16 12:19:46;;;;;;;6.50;5.80;;;;;;;22.50;62.51;99030.28;463322;1195;141624;-60
2021/09/16 12:29:55;;;;;;;7.30;6.20;;;;;;;22.66;63.83;99025.69;459231;1196;143185;-56
2021/09/16 12:40:01;;;;;;;6.50;6.00;;;;;;;23.50;64.17;99011.63;467865;1194;141694;-61
2021/09/16 12:50:09;;;;;;;5.80;5.40;;;;;;;24.49;62.48;99011.67;474846;1195;142890;-57
2021/09/16 13:00:21;;;;;;;6.40;5.70;;;;;;;24.66;61.20;99014.94;475852;1195;141104;-55
2021/09/16 13:10:28;;;;;;;4.80;4.50;;;;;;;24.43;61.06;99010.94;463478;1195;142408;-61
2021/09/16 13:20:34;;;;;;;8.00;7.40;;;;;;;23.84;61.41;99013.32;459881;1195;141351;-60
2021/09/16 13:30:41;;;;;;;7.50;6.70;;;;;;;22.67;61.96;99028.15;459395;1194;195311;-60
2021/09/16 13:40:48;;;;;;;6.70;6.00;;;;;;;21.68;64.11;99036.41;459007;1195;141457;-60
2021/09/16 13:50:54;;;;;;;4.80;4.40;;;;;;;21.27;65.67;99037.05;461756;1190;141173;-60
2021/09/16 14:00:59;;;;;;;5.40;4.80;;;;;;;21.14;66.55;99034.73;459617;1195;141327;-62
2021/09/16 14:11:07;;;;;;;4.20;3.80;;;;;;;21.22;66.96;99033.20;458695;1195;141379;-58
2021/09/16 14:21:13;;;;;;;7.00;4.70;;;;;;;21.24;67.30;99030.87;475637;1194;140577;-59
2021/09/16 14:31:18;;;;;;;5.90;5.40;;;;;;;21.38;67.71;99027.96;475756;1195;140890;-58
2021/09/16 14:41:24;;;;;;;5.80;5.30;;;;;;;21.48;67.83;99013.10;474422;1194;140754;-58
2021/09/16 14:51:30;;;;;;;8.50;7.60;;;;;;;21.54;67.86;99022.48;464635;1195;141196;-58
2021/09/16 15:01:36;;;;;;;9.20;8.30;;;;;;;21.40;68.45;99027.75;451881;1191;10002125;-60
2021/09/16 15:11:42;;;;;;;8.80;7.70;;;;;;;21.29;68.93;99032.46;460795;1195;140484;-58
2021/09/16 15:21:48;;;;;;;8.50;7.90;;;;;;;21.16;69.45;99032.71;475901;1194;143097;-59
2021/09/16 15:31:54;;;;;;;8.70;7.80;;;;;;;20.98;69.96;99032.23;463716;1195;145087;-58
2021/09/16 15:42:04;;;;;;;9.30;8.50;;;;;;;20.62;69.45;99031.92;466283;1195;142807;-58
2021/09/16 15:52:11;;;;;;;9.70;8.80;;;;;;;20.42;69.25;99029.17;467380;1195;140910;-60
2021/09/16 16:02:16;;;;;;;13.00;11.70;;;;;;;20.31;70.13;99027.58;474924;1194;142632;-60
2021/09/16 16:12:23;;;;;;;9.30;8.60;;;;;;;20.14;70.61;99037.95;470740;1195;141469;-58
2021/09/16 16:22:29;;;;;;;9.40;8.70;;;;;;;20.01;71.16;99043.61;473755;1193;140322;-59
2021/09/16 16:32:35;;;;;;;10.00;8.50;;;;;;;19.87;71.60;99040.56;475205;1194;142827;-60
2021/09/16 16:42:42;;;;;;;10.00;9.10;;;;;;;19.63;72.32;99043.83;468993;1193;141935;-59
2021/09/16 16:52:48;;;;;;;11.80;10.70;;;;;;;19.52;73.19;99044.39;465696;1193;141852;-58
2021/09/16 17:02:54;;;;;;;13.00;11.30;;;;;;;19.34;73.79;99050.55;476663;1192;141668;-59
2021/09/16 17:13:01;;;;;;;12.30;10.80;;;;;;;19.19;74.42;99058.61;475465;1193;141785;-59
2021/09/16 17:23:06;;;;;;;13.20;11.90;;;;;;;19.02;75.03;99065.23;475484;1191;141056;-59
2021/09/16 17:33:15;;;;;;;14.60;12.60;;;;;;;18.90;75.55;99068.05;472020;1192;142026;-58
2021/09/16 17:43:20;;;;;;;14.30;12.90;;;;;;;18.80;76.15;99066.27;459947;1192;140963;-57
2021/09/16 17:53:26;;;;;;;15.80;13.80;;;;;;;18.71;76.47;99072.69;452030;1193;10003062;-60
2021/09/16 18:03:32;;;;;;;16.90;15.30;;;;;;;18.65;76.90;99074.98;476332;1193;142336;-59
2021/09/16 18:13:38;;;;;;;17.40;14.90;;;;;;;18.61;77.21;99073.97;476035;1193;141832;-60
2021/09/16 18:23:44;;;;;;;23.60;17.00;;;;;;;18.59;77.52;99079.66;475238;1193;142413;-59
2021/09/16 18:33:50;;;;;;;21.10;17.70;;;;;;;18.56;77.73;99080.27;476566;1192;142133;-59
2021/09/16 18:43:56;;;;;;;18.30;15.30;;;;;;;18.50;77.98;99081.30;469412;1192;143747;-57
2021/09/16 18:54:02;;;;;;;17.10;15.50;;;;;;;18.45;78.24;99077.42;472189;1192;141048;-59
2021/09/16 19:04:08;;;;;;;20.50;17.30;;;;;;;18.38;78.15;99078.14;460890;1192;141228;-57
2021/09/16 19:14:15;;;;;;;17.50;15.80;;;;;;;18.31;78.46;99082.87;475780;1192;141413;-59
2021/09/16 19:24:21;;;;;;;16.10;13.90;;;;;;;18.25;78.33;99082.55;468822;1193;141112;-58
2021/09/16 19:34:43;;;;;;;12.70;11.50;;;;;;;18.20;78.28;99080.84;465714;1190;140838;-58
2021/09/16 19:44:50;;;;;;;11.80;10.80;;;;;;;18.11;77.94;99077.91;476081;1190;141115;-58
2021/09/16 19:54:55;;;;;;;14.20;11.10;;;;;;;18.01;77.57;99075.02;477172;1190;142008;-59
2021/09/16 20:05:01;;;;;;;12.70;10.30;;;;;;;17.95;77.57;99071.77;476207;1190;141330;-58
2021/09/16 20:15:09;;;;;;;12.60;11.30;;;;;;;17.88;77.50;99072.46;461670;1190;142188;-57
2021/09/16 20:25:16;;;;;;;13.60;12.20;;;;;;;17.73;77.70;99070.83;463130;1192;141859;-58
2021/09/16 20:35:22;;;;;;;11.90;10.70;;;;;;;17.55;78.08;99081.61;464364;1190;141314;-58
2021/09/16 20:45:29;;;;;;;16.30;10.70;;;;;;;17.44;78.15;99084.46;460623;1192;141346;-58
2021/09/16 20:55:36;;;;;;;11.10;9.90;;;;;;;17.33;77.85;99094.04;465758;1189;140958;-58
2021/09/16 21:05:43;;;;;;;9.80;8.80;;;;;;;17.29;77.75;99095.33;476900;1190;140892;-58
2021/09/16 21:15:48;;;;;;;9.80;9.00;;;;;;;17.21;77.49;99095.04;474934;1190;140622;-58
2021/09/16 21:25:54;;;;;;;10.40;8.50;;;;;;;17.03;77.38;99089.57;477099;1190;152725;-58
2021/09/16 21:36:00;;;;;;;9.60;8.70;;;;;;;16.94;77.45;99097.17;465887;1180;141066;-57
2021/09/16 21:46:06;;;;;;;10.40;9.30;;;;;;;16.88;77.68;99101.70;460794;1191;140705;-57
2021/09/16 21:56:12;;;;;;;10.00;9.00;;;;;;;16.83;77.93;99092.98;470503;1190;141820;-61
2021/09/16 22:06:18;;;;;;;10.50;9.50;;;;;;;16.80;77.95;99084.58;477745;1190;142820;-60
2021/09/16 22:16:24;;;;;;;9.50;8.60;;;;;;;16.75;77.96;99087.34;474940;1190;141977;-61
2021/09/16 22:26:31;;;;;;;11.20;8.90;;;;;;;16.75;78.04;99094.46;460433;1190;142215;-61
2021/09/16 22:36:37;;;;;;;11.00;8.90;;;;;;;16.70;78.23;99090.34;462318;1190;141156;-60
2021/09/16 22:46:43;;;;;;;8.10;7.40;;;;;;;16.62;78.18;99084.36;465717;1190;140731;-60
2021/09/16 22:56:49;;;;;;;6.70;6.10;;;;;;;16.49;77.29;99081.33;476952;1190;141711;-61
2021/09/16 23:06:56;;;;;;;6.00;5.40;;;;;;;16.45;77.20;99086.31;470198;1177;141551;-60
2021/09/16 23:17:02;;;;;;;7.30;5.70;;;;;;;16.40;76.76;99081.34;459763;1190;141770;-60
2021/09/16 23:27:08;;;;;;;7.40;4.80;;;;;;;16.35;76.45;99069.11;473084;1190;142145;-60
2021/09/16 23:37:14;;;;;;;4.10;3.80;;;;;;;16.23;75.87;99076.98;477643;1190;144771;-61
2021/09/16 23:47:19;;;;;;;4.00;3.60;;;;;;;16.07;74.68;99078.31;475432;1190;140807;-60
2021/09/16 23:57:25;;;;;;;4.30;3.60;;;;;;;15.95;74.08;99065.82;463556;1190;140897;-59
